Time;durP1;ratioP1;P1;durP2;ratioP2;P2;SDS_P1;SDS_P2;PMS_P1;PMS_P2;Temp;Humidity;BMP_temperature;BMP_pressure;BME280_temperature;BME280_humidity;BME280_pressure;Samples;Min_cycle;Max_cycle;Signal;HPM_P1;HPM_P2
2022/05/21 00:00:04;;;;;;;0.40;0.40;;;11.10;99.90;;;;;;5073799;28;20083;-72
2022/05/21 00:02:30;;;;;;;0.40;0.40;;;11.10;99.90;;;;;;5073779;28;20373;-72
2022/05/21 00:04:55;;;;;;;0.40;0.40;;;11.10;99.90;;;;;;5074074;28;20047;-72
2022/05/21 00:07:21;;;;;;;0.40;0.40;;;11.10;99.90;;;;;;5073895;28;20545;-72
2022/05/21 00:09:46;;;;;;;1.10;1.05;;;11.00;99.90;;;;;;5073781;28;20162;-72
2022/05/21 00:12:12;;;;;;;0.40;0.40;;;11.00;99.90;;;;;;5073571;28;20127;-72
2022/05/21 00:14:37;;;;;;;0.40;0.40;;;11.00;99.90;;;;;;5073752;28;20138;-72
2022/05/21 00:17:04;;;;;;;0.50;0.50;;;11.00;99.90;;;;;;5073608;28;20094;-72
2022/05/21 00:19:29;;;;;;;0.87;0.80;;;10.90;99.90;;;;;;5074103;28;20041;-72
2022/05/21 00:21:55;;;;;;;0.40;0.40;;;10.90;99.90;;;;;;5073640;28;20432;-72
2022/05/21 00:24:20;;;;;;;0.60;0.60;;;10.90;99.90;;;;;;5073602;28;20051;-72
2022/05/21 00:26:47;;;;;;;0.47;0.47;;;10.90;99.90;;;;;;5073851;28;20048;-72
2022/05/21 00:29:13;;;;;;;1.20;1.02;;;10.90;99.90;;;;;;5073614;28;20045;-71
2022/05/21 00:31:38;;;;;;;0.55;0.55;;;10.90;99.90;;;;;;5073498;28;20491;-71
2022/05/21 00:34:04;;;;;;;0.40;0.40;;;10.90;99.90;;;;;;5073612;28;20060;-71
2022/05/21 00:36:29;;;;;;;0.40;0.40;;;10.90;99.90;;;;;;5073806;28;20036;-71
2022/05/21 00:38:55;;;;;;;0.52;0.52;;;10.80;99.90;;;;;;5073443;28;20095;-71
2022/05/21 00:41:21;;;;;;;0.52;0.52;;;10.90;99.90;;;;;;5073152;28;20087;-71
2022/05/21 00:43:48;;;;;;;0.50;0.50;;;10.80;99.90;;;;;;5073408;28;20044;-71
2022/05/21 00:46:16;;;;;;;0.40;0.40;;;10.80;99.90;;;;;;5073383;28;20404;-71
2022/05/21 00:48:44;;;;;;;0.50;0.50;;;10.80;99.90;;;;;;5074036;28;20052;-71
2022/05/21 00:51:20;;;;;;;0.50;0.50;;;10.80;99.90;;;;;;5077283;28;20134;-71
2022/05/21 00:53:49;;;;;;;0.60;0.60;;;10.80;99.90;;;;;;5077589;28;20516;-71
2022/05/21 00:56:16;;;;;;;2.65;1.05;;;10.80;99.90;;;;;;5077354;28;20055;-71
2022/05/21 01:01:30;;;;;;;0.55;0.55;;;10.70;99.90;;;;;;5077082;28;20472;-72
2022/05/21 01:03:56;;;;;;;0.60;0.60;;;10.70;99.90;;;;;;5077027;28;20049;-72
2022/05/21 01:06:22;;;;;;;0.57;0.57;;;10.70;99.90;;;;;;5077426;28;20045;-72
2022/05/21 01:08:48;;;;;;;1.47;1.37;;;10.80;99.90;;;;;;5076652;28;20568;-70
2022/05/21 01:11:17;;;;;;;0.52;0.52;;;10.80;99.90;;;;;;5077007;28;20127;-70
2022/05/21 01:13:45;;;;;;;0.88;0.77;;;10.80;99.90;;;;;;5076785;28;20508;-70
2022/05/21 01:16:11;;;;;;;0.68;0.68;;;10.90;99.90;;;;;;5076829;28;20080;-70
2022/05/21 01:18:37;;;;;;;0.50;0.50;;;10.80;99.90;;;;;;5077142;28;20051;-70
2022/05/21 01:21:04;;;;;;;2.28;1.48;;;10.90;99.90;;;;;;5076726;28;20036;-70
2022/05/21 01:23:30;;;;;;;1.50;1.33;;;10.80;99.90;;;;;;5076659;28;20448;-71
2022/05/21 01:25:59;;;;;;;0.83;0.83;;;10.80;99.90;;;;;;5076592;28;20489;-72
2022/05/21 01:28:27;;;;;;;1.02;1.02;;;10.80;99.90;;;;;;5076647;28;20366;-71
2022/05/21 01:30:56;;;;;;;0.80;0.80;;;10.80;99.90;;;;;;5076557;28;20040;-71
2022/05/21 01:33:27;;;;;;;1.10;0.85;;;10.90;99.90;;;;;;5076425;28;20043;-71
2022/05/21 01:35:53;;;;;;;0.50;0.50;;;10.90;99.90;;;;;;5076537;28;20109;-71
2022/05/21 01:38:20;;;;;;;2.55;1.15;;;10.90;99.90;;;;;;5076490;28;20044;-71
2022/05/21 01:40:46;;;;;;;0.63;0.63;;;11.00;99.90;;;;;;5076200;28;20053;-71
2022/05/21 01:45:56;;;;;;;0.40;0.40;;;11.10;99.90;;;;;;5076570;28;20060;-71
2022/05/21 01:48:26;;;;;;;2.80;0.77;;;11.20;99.90;;;;;;5076138;28;20047;-71
2022/05/21 01:50:53;;;;;;;0.73;0.73;;;11.20;99.90;;;;;;5076266;28;20150;-71
2022/05/21 01:53:21;;;;;;;1.08;1.05;;;11.20;99.90;;;;;;5076129;28;20044;-71
2022/05/21 01:55:48;;;;;;;0.55;0.55;;;11.30;99.90;;;;;;5076131;28;20059;-71
2022/05/21 01:58:14;;;;;;;;;;;11.40;99.90;;;;;;5076551;28;20048;-71
2022/05/21 02:00:40;;;;;;;0.68;0.68;;;11.40;99.90;;;;;;5075057;28;19928;-71
2022/05/21 02:03:07;;;;;;;0.50;0.50;;;11.40;99.90;;;;;;5076035;28;20040;-71
2022/05/21 02:05:33;;;;;;;0.52;0.52;;;11.40;99.90;;;;;;5075971;28;20446;-71
2022/05/21 02:07:59;;;;;;;0.82;0.82;;;11.50;99.90;;;;;;5075859;28;20049;-71
2022/05/21 02:10:24;;;;;;;0.70;0.70;;;11.50;99.90;;;;;;5076016;28;20141;-71
2022/05/21 02:12:50;;;;;;;1.02;0.93;;;11.50;99.90;;;;;;5075842;28;20488;-72
2022/05/21 02:15:16;;;;;;;0.60;0.60;;;11.50;99.90;;;;;;5074632;28;20093;-72
2022/05/21 02:17:41;;;;;;;1.45;1.02;;;11.60;99.90;;;;;;5075748;28;20447;-70
2022/05/21 02:20:07;;;;;;;0.40;0.40;;;11.60;99.90;;;;;;5075664;28;20048;-70
2022/05/21 02:22:36;;;;;;;0.60;0.60;;;11.60;99.90;;;;;;5075653;28;20036;-70
2022/05/21 02:25:05;;;;;;;5.25;3.15;;;11.60;99.90;;;;;;5075541;28;20127;-70
2022/05/21 02:27:30;;;;;;;0.70;0.70;;;11.60;99.90;;;;;;5075898;28;20045;-71
2022/05/21 02:29:56;;;;;;;0.73;0.73;;;11.60;99.90;;;;;;5075501;28;20484;-71
2022/05/21 02:32:21;;;;;;;0.70;0.70;;;11.60;99.90;;;;;;5075423;28;20053;-71
2022/05/21 02:34:47;;;;;;;0.77;0.77;;;11.70;99.90;;;;;;5075502;28;20047;-71
2022/05/21 02:39:57;;;;;;;1.30;1.20;;;11.70;99.90;;;;;;5075681;28;20447;-71
2022/05/21 02:45:07;;;;;;;0.80;0.80;;;11.70;99.90;;;;;;5075235;28;20044;-70
2022/05/21 02:47:33;;;;;;;1.58;1.48;;;11.70;99.90;;;;;;5075186;28;20037;-70
2022/05/21 02:49:59;;;;;;;0.50;0.50;;;11.70;99.90;;;;;;5075161;28;20105;-70
2022/05/21 02:52:24;;;;;;;1.25;0.88;;;11.80;99.90;;;;;;5075478;28;20053;-72
2022/05/21 02:54:50;;;;;;;1.17;1.02;;;11.80;99.90;;;;;;5075069;28;20097;-72
2022/05/21 02:57:16;;;;;;;0.70;0.70;;;11.80;99.90;;;;;;5075180;28;20052;-71
2022/05/21 02:59:42;;;;;;;2.03;1.02;;;11.80;99.90;;;;;;5074877;28;20134;-71
2022/05/21 03:02:08;;;;;;;0.70;0.70;;;11.90;99.90;;;;;;5074741;28;20499;-71
2022/05/21 03:04:34;;;;;;;1.60;1.00;;;11.80;99.90;;;;;;5074796;28;20044;-71
2022/05/21 03:07:00;;;;;;;0.75;0.73;;;11.90;99.90;;;;;;5074791;28;20052;-71
2022/05/21 03:12:10;;;;;;;0.77;0.77;;;11.90;99.90;;;;;;5074822;28;20052;-71
2022/05/21 03:14:37;;;;;;;0.77;0.77;;;12.00;99.90;;;;;;5074613;28;20056;-71
2022/05/21 03:17:03;;;;;;;0.50;0.50;;;12.00;99.90;;;;;;5074481;28;20044;-72
2022/05/21 03:19:32;;;;;;;0.63;0.63;;;11.90;99.90;;;;;;5073304;28;20090;-71
2022/05/21 03:21:58;;;;;;;0.55;0.55;;;12.00;99.90;;;;;;5074229;28;20047;-71
2022/05/21 03:24:24;;;;;;;0.82;0.82;;;11.90;99.90;;;;;;5074656;28;20040;-71
2022/05/21 03:26:50;;;;;;;0.60;0.60;;;12.00;99.90;;;;;;5074356;28;20094;-71
2022/05/21 03:29:16;;;;;;;1.20;1.10;;;11.90;99.90;;;;;;5074399;28;20286;-71
2022/05/21 03:31:41;;;;;;;1.30;1.20;;;12.00;99.90;;;;;;5074040;28;20040;-71
2022/05/21 03:34:07;;;;;;;0.50;0.50;;;12.00;99.90;;;;;;5073951;28;20048;-72
2022/05/21 03:36:32;;;;;;;0.57;0.57;;;12.00;99.90;;;;;;5074296;28;20044;-72
2022/05/21 03:38:59;;;;;;;0.75;0.75;;;12.00;99.90;;;;;;5074187;28;20530;-71
2022/05/21 03:41:26;;;;;;;0.75;0.75;;;12.00;99.90;;;;;;5074021;28;20102;-72
2022/05/21 03:43:55;;;;;;;0.40;0.40;;;12.10;99.90;;;;;;5073898;28;20059;-72
2022/05/21 03:46:21;;;;;;;1.30;1.20;;;12.10;99.90;;;;;;5074030;28;20040;-71
2022/05/21 03:48:46;;;;;;;0.80;0.80;;;12.10;99.90;;;;;;5074047;28;20465;-71
2022/05/21 03:51:12;;;;;;;0.50;0.50;;;12.10;99.90;;;;;;5074423;28;20071;-72
2022/05/21 03:53:38;;;;;;;0.40;0.40;;;12.10;99.90;;;;;;5074231;28;20044;-72
2022/05/21 03:56:04;;;;;;;0.52;0.52;;;12.00;99.90;;;;;;5074057;28;20123;-72
2022/05/21 03:58:31;;;;;;;0.50;0.50;;;12.10;99.90;;;;;;5073798;28;20054;-72
2022/05/21 04:00:56;;;;;;;1.08;1.08;;;12.10;99.90;;;;;;5074006;28;20044;-72
2022/05/21 04:03:22;;;;;;;0.75;0.75;;;12.10;99.90;;;;;;5073949;28;20052;-72
2022/05/21 04:05:48;;;;;;;0.80;0.80;;;12.20;99.90;;;;;;5073835;28;20040;-72
2022/05/21 04:08:16;;;;;;;1.05;0.93;;;12.20;99.90;;;;;;5074202;28;20430;-72
2022/05/21 04:10:41;;;;;;;0.40;0.40;;;12.20;99.90;;;;;;5073767;28;20060;-72
2022/05/21 04:13:07;;;;;;;0.55;0.55;;;12.20;99.90;;;;;;5073820;28;20044;-72
2022/05/21 04:15:34;;;;;;;0.40;0.40;;;12.30;99.90;;;;;;5073807;28;20052;-72
2022/05/21 04:18:00;;;;;;;0.40;0.40;;;12.30;99.90;;;;;;5073997;28;20469;-71
2022/05/21 04:20:26;;;;;;;1.20;1.10;;;12.30;99.90;;;;;;5073328;28;20511;-72
2022/05/21 04:22:52;;;;;;;0.50;0.50;;;12.30;99.90;;;;;;5073710;28;20056;-72
2022/05/21 04:25:19;;;;;;;0.50;0.50;;;12.30;99.90;;;;;;5073291;28;20052;-72
2022/05/21 04:27:45;;;;;;;0.65;0.65;;;12.30;99.90;;;;;;5073556;28;20503;-72
2022/05/21 04:30:17;;;;;;;0.65;0.65;;;12.30;99.90;;;;;;5073530;28;20053;-72
2022/05/21 04:32:47;;;;;;;0.60;0.60;;;12.30;99.90;;;;;;5073989;28;20037;-72
2022/05/21 04:35:14;;;;;;;1.05;1.05;;;12.30;99.90;;;;;;5073727;28;20044;-72
2022/05/21 04:37:39;;;;;;;;;;;12.30;99.90;;;;;;5074167;28;20498;-72
2022/05/21 04:40:08;;;;;;;0.40;0.40;;;12.30;99.90;;;;;;5073489;28;19924;-72
2022/05/21 04:42:34;;;;;;;0.50;0.50;;;12.40;99.90;;;;;;5072297;28;20492;-72
2022/05/21 04:44:59;;;;;;;0.77;0.77;;;12.30;99.90;;;;;;5073427;28;20053;-72
2022/05/21 04:47:25;;;;;;;0.40;0.40;;;12.40;99.90;;;;;;5073076;28;20048;-72
2022/05/21 04:49:51;;;;;;;0.43;0.43;;;12.40;99.90;;;;;;5073400;28;20480;-72
2022/05/21 04:52:16;;;;;;;0.63;0.63;;;12.40;99.90;;;;;;5073373;28;20047;-72
2022/05/21 04:54:42;;;;;;;0.73;0.73;;;12.50;99.90;;;;;;5073564;28;20045;-72
2022/05/21 04:57:08;;;;;;;0.40;0.40;;;12.50;99.90;;;;;;5073296;28;20048;-72
2022/05/21 04:59:33;;;;;;;0.47;0.47;;;12.50;99.90;;;;;;5073800;28;20054;-72
2022/05/21 05:01:59;;;;;;;0.40;0.40;;;12.50;99.90;;;;;;5072917;28;20087;-72
2022/05/21 05:04:25;;;;;;;0.40;0.40;;;12.50;99.90;;;;;;5073295;28;20047;-72
2022/05/21 05:06:50;;;;;;;0.73;0.73;;;12.60;99.90;;;;;;5073294;28;20044;-72
2022/05/21 05:09:21;;;;;;;1.38;0.85;;;12.60;99.90;;;;;;5071712;28;20094;-72
2022/05/21 05:11:47;;;;;;;0.82;0.73;;;12.70;99.90;;;;;;5072976;28;20049;-72
2022/05/21 05:14:13;;;;;;;0.40;0.40;;;12.70;99.90;;;;;;5073234;28;20045;-72
2022/05/21 05:16:38;;;;;;;0.50;0.50;;;12.70;99.90;;;;;;5073191;28;20055;-72
2022/05/21 05:19:04;;;;;;;0.57;0.50;;;12.80;99.90;;;;;;5073499;28;20040;-72
2022/05/21 05:21:29;;;;;;;0.45;0.45;;;12.90;99.90;;;;;;5073312;28;20041;-70
2022/05/21 05:23:55;;;;;;;0.68;0.68;;;13.00;99.90;;;;;;5073067;28;20048;-70
2022/05/21 05:26:22;;;;;;;0.40;0.40;;;13.10;99.90;;;;;;5073090;28;20045;-70
2022/05/21 05:28:48;;;;;;;0.50;0.50;;;13.20;99.90;;;;;;5072772;28;20041;-71
2022/05/21 05:31:14;;;;;;;1.15;1.05;;;13.30;99.90;;;;;;5073020;28;20102;-71
2022/05/21 05:33:39;;;;;;;0.40;0.40;;;13.30;99.90;;;;;;5072652;28;20052;-71
2022/05/21 05:36:05;;;;;;;0.40;0.40;;;13.40;99.90;;;;;;5073605;28;20052;-71
2022/05/21 05:38:31;;;;;;;0.40;0.40;;;13.60;99.90;;;;;;5076564;28;20094;-71
2022/05/21 05:40:57;;;;;;;0.40;0.40;;;13.60;99.90;;;;;;5076430;28;20036;-71
2022/05/21 05:43:23;;;;;;;1.85;1.15;;;13.70;99.90;;;;;;5076401;28;20093;-71
2022/05/21 05:45:51;;;;;;;0.70;0.70;;;13.70;99.90;;;;;;5076361;28;20051;-71
2022/05/21 05:48:19;;;;;;;0.50;0.50;;;13.80;99.90;;;;;;5076278;28;20083;-71
2022/05/21 05:50:45;;;;;;;0.35;0.35;;;13.90;99.90;;;;;;5076305;28;20049;-71
2022/05/21 05:53:11;;;;;;;0.50;0.50;;;14.00;99.90;;;;;;5076285;28;20040;-70
2022/05/21 05:55:36;;;;;;;0.73;0.73;;;14.20;99.90;;;;;;5076207;28;20055;-71
2022/05/21 05:59:48;;;;;;;0.40;0.40;;;14.30;99.90;;;;;;5076182;28;20131;-71
2022/05/21 06:00:48;;;;;;;0.40;0.40;;;14.40;99.90;;;;;;5076303;28;20518;-72
2022/05/21 06:03:13;;;;;;;0.50;0.50;;;14.50;99.90;;;;;;5076030;28;20123;-72
2022/05/21 06:05:39;;;;;;;0.30;0.30;;;14.60;99.90;;;;;;5075972;28;20044;-72
2022/05/21 06:08:06;;;;;;;0.40;0.40;;;14.70;99.90;;;;;;5075888;28;20124;-72
2022/05/21 06:10:37;;;;;;;0.30;0.30;;;14.60;99.90;;;;;;5075780;28;20465;-72
2022/05/21 06:13:03;;;;;;;0.90;0.60;;;14.40;99.90;;;;;;5075862;28;20131;-72
2022/05/21 06:15:29;;;;;;;;;;;14.60;99.90;;;;;;5076219;28;20051;-72
2022/05/21 06:17:55;;;;;;;0.82;0.82;;;14.60;99.90;;;;;;5075682;28;19925;-71
2022/05/21 06:20:27;;;;;;;0.40;0.40;;;14.60;99.90;;;;;;5075684;28;20157;-71
2022/05/21 06:22:53;;;;;;;0.40;0.40;;;14.70;99.90;;;;;;5075720;28;20045;-72
2022/05/21 06:25:22;;;;;;;0.30;0.30;;;14.80;99.90;;;;;;5076117;28;20438;-72
2022/05/21 06:27:50;;;;;;;0.40;0.40;;;14.90;99.90;;;;;;5075486;28;20492;-72
2022/05/21 06:30:18;;;;;;;0.40;0.40;;;15.00;99.90;;;;;;5075938;28;20505;-72
2022/05/21 06:32:43;;;;;;;0.30;0.30;;;15.00;99.90;;;;;;5075452;28;20040;-71
2022/05/21 06:35:11;;;;;;;0.53;0.53;;;15.10;99.90;;;;;;5075571;28;20056;-71
2022/05/21 06:37:37;;;;;;;0.63;0.63;;;15.10;99.90;;;;;;5075276;28;20477;-71
2022/05/21 06:40:04;;;;;;;0.40;0.40;;;15.30;99.90;;;;;;5075275;28;20094;-71
2022/05/21 06:42:30;;;;;;;0.30;0.30;;;15.40;99.90;;;;;;5075552;28;20059;-71
2022/05/21 06:44:56;;;;;;;0.40;0.40;;;15.60;99.90;;;;;;5075314;28;20044;-72
2022/05/21 06:47:21;;;;;;;0.40;0.40;;;15.80;99.90;;;;;;5074954;28;20086;-71
2022/05/21 06:49:47;;;;;;;0.60;0.60;;;15.90;99.90;;;;;;5075280;28;20055;-71
2022/05/21 06:52:13;;;;;;;0.30;0.30;;;15.80;99.90;;;;;;5075048;28;20049;-72
2022/05/21 06:54:38;;;;;;;0.30;0.30;;;15.80;99.90;;;;;;5075514;28;20044;-72
2022/05/21 06:57:08;;;;;;;0.50;0.50;;;15.80;99.90;;;;;;5074951;28;20043;-72
2022/05/21 06:59:34;;;;;;;0.30;0.30;;;15.70;99.90;;;;;;5074621;28;20557;-72
2022/05/21 07:02:00;;;;;;;0.38;0.38;;;15.90;99.90;;;;;;5074905;28;20037;-72
2022/05/21 07:09:57;;;;;;;0.30;0.30;;;16.10;99.90;;;;;;5074683;28;20068;-72
2022/05/21 07:12:23;;;;;;;0.30;0.30;;;16.00;99.90;;;;;;5074871;28;20401;-72
2022/05/21 07:14:48;;;;;;;0.30;0.30;;;16.00;99.90;;;;;;5074778;28;20052;-72
2022/05/21 07:17:16;;;;;;;0.30;0.30;;;16.00;99.90;;;;;;5074479;28;20044;-72
2022/05/21 07:19:41;;;;;;;0.73;0.65;;;16.00;99.90;;;;;;5074477;28;20052;-72
2022/05/21 07:22:08;;;;;;;0.40;0.40;;;16.00;99.90;;;;;;5074837;28;20047;-72
2022/05/21 07:24:38;;;;;;;0.32;0.32;;;16.10;99.90;;;;;;5074385;28;20041;-72
2022/05/21 07:27:04;;;;;;;0.30;0.30;;;16.20;99.90;;;;;;5074377;28;20131;-72
2022/05/21 07:29:29;;;;;;;0.57;0.57;;;16.50;99.90;;;;;;5074322;28;20103;-72
2022/05/21 07:31:55;;;;;;;0.47;0.47;;;16.60;99.90;;;;;;5074225;28;20055;-73
2022/05/21 07:34:21;;;;;;;0.30;0.30;;;16.70;99.90;;;;;;5074258;28;20036;-72
2022/05/21 07:36:47;;;;;;;3.93;1.17;;;17.00;99.90;;;;;;5074219;28;20048;-72
2022/05/21 07:39:12;;;;;;;0.40;0.40;;;17.20;99.90;;;;;;5074237;28;20053;-72
2022/05/21 07:41:38;;;;;;;0.30;0.30;;;17.20;99.90;;;;;;5074074;28;20040;-72
2022/05/21 07:44:04;;;;;;;0.30;0.30;;;17.40;99.90;;;;;;5074159;28;20131;-72
2022/05/21 07:46:29;;;;;;;0.50;0.50;;;17.30;99.90;;;;;;5074033;28;20041;-72
2022/05/21 07:48:55;;;;;;;0.30;0.30;;;17.10;99.90;;;;;;5072809;28;20048;-71
2022/05/21 07:51:20;;;;;;;0.30;0.30;;;17.20;99.90;;;;;;5074429;28;20045;-71
2022/05/21 07:53:46;;;;;;;0.30;0.30;;;17.30;99.90;;;;;;5073996;28;20044;-71
2022/05/21 07:56:11;;;;;;;2.30;1.07;;;17.10;99.90;;;;;;5073953;28;20084;-72
2022/05/21 07:58:42;;;;;;;0.30;0.30;;;17.10;99.90;;;;;;5073310;28;20053;-72
2022/05/21 08:01:10;;;;;;;0.30;0.30;;;17.00;99.90;;;;;;5073781;28;20370;-72
2022/05/21 08:03:35;;;;;;;0.40;0.40;;;17.00;99.90;;;;;;5073825;28;20396;-72
2022/05/21 08:06:01;;;;;;;0.30;0.30;;;17.00;99.90;;;;;;5073726;28;20052;-72
2022/05/21 08:08:26;;;;;;;0.30;0.30;;;17.20;99.90;;;;;;5073810;28;20079;-72
2022/05/21 08:10:52;;;;;;;0.30;0.30;;;17.20;99.90;;;;;;5073837;28;20056;-72
2022/05/21 08:13:17;;;;;;;0.57;0.40;;;17.40;99.90;;;;;;5073727;28;20044;-72
2022/05/21 08:15:44;;;;;;;0.30;0.30;;;17.30;99.90;;;;;;5073656;28;20072;-72
2022/05/21 08:18:10;;;;;;;0.73;0.73;;;17.30;99.90;;;;;;5073681;28;20044;-73
2022/05/21 08:20:37;;;;;;;0.40;0.40;;;16.90;99.90;;;;;;5073565;28;20049;-71
2022/05/21 08:28:32;;;;;;;0.30;0.30;;;16.50;99.90;;;;;;5073745;28;20051;-71
2022/05/21 08:30:58;;;;;;;0.40;0.40;;;16.50;99.90;;;;;;5076133;28;20115;-72
2022/05/21 08:33:24;;;;;;;0.40;0.40;;;16.40;99.90;;;;;;5075774;28;20086;-72
2022/05/21 08:35:50;;;;;;;0.30;0.30;;;16.20;99.90;;;;;;5076158;28;20040;-72
2022/05/21 08:38:16;;;;;;;0.30;0.30;;;16.00;99.90;;;;;;5074851;28;20105;-72
2022/05/21 08:40:54;;;;;;;0.30;0.30;;;16.00;99.90;;;;;;5073588;28;20132;-72
2022/05/21 08:43:51;;;;;;;0.55;0.55;;;16.00;99.90;;;;;;5073446;28;20052;-72
2022/05/21 08:46:40;;;;;;;0.60;0.60;;;16.30;99.90;;;;;;5073415;28;20055;-72
2022/05/21 08:49:31;;;;;;;0.30;0.30;;;16.70;99.90;;;;;;5073427;28;20044;-72
2022/05/21 08:52:07;;;;;;;0.35;0.35;;;17.10;99.90;;;;;;5073387;28;20132;-72
2022/05/21 08:54:43;;;;;;;0.30;0.30;;;17.10;99.90;;;;;;5073449;28;20040;-72
2022/05/21 08:57:19;;;;;;;0.30;0.30;;;17.10;99.90;;;;;;5073281;28;20503;-72
2022/05/21 09:00:20;;;;;;;0.30;0.30;;;17.30;99.90;;;;;;5073383;28;20076;-72
2022/05/21 09:02:46;;;;;;;0.50;0.50;;;17.40;99.90;;;;;;5070649;28;20060;-72
2022/05/21 09:05:15;;;;;;;0.40;0.40;;;17.20;99.90;;;;;;5073223;28;20051;-72
2022/05/21 09:07:48;;;;;;;6.43;1.55;;;17.10;99.90;;;;;;5073219;28;20048;-72
2022/05/21 09:10:43;;;;;;;0.30;0.30;;;17.00;99.90;;;;;;5074033;28;20053;-72
2022/05/21 09:13:20;;;;;;;0.30;0.30;;;17.20;99.90;;;;;;5077246;28;20053;-72
2022/05/21 09:18:32;;;;;;;0.38;0.38;;;17.30;99.90;;;;;;5076859;28;20049;-72
2022/05/21 09:21:14;;;;;;;0.30;0.30;;;17.50;99.90;;;;;;5076770;28;20135;-72
2022/05/21 09:23:50;;;;;;;0.40;0.40;;;17.70;99.90;;;;;;5077156;28;20109;-72
2022/05/21 09:26:19;;;;;;;0.30;0.30;;;17.90;99.90;;;;;;5076732;28;20488;-72
2022/05/21 09:28:44;;;;;;;0.30;0.30;;;17.90;99.90;;;;;;5076815;28;20050;-73
2022/05/21 09:31:11;;;;;;;0.30;0.30;;;17.80;99.90;;;;;;5076587;28;20041;-73
2022/05/21 09:33:42;;;;;;;0.30;0.30;;;17.70;99.90;;;;;;5077165;28;20105;-73
2022/05/21 09:36:08;;;;;;;0.35;0.35;;;18.00;99.90;;;;;;5076604;28;20041;-73
2022/05/21 09:38:48;;;;;;;0.30;0.30;;;17.90;99.90;;;;;;5076615;28;20396;-73
2022/05/21 09:41:23;;;;;;;0.30;0.30;;;17.90;99.90;;;;;;5076543;28;20051;-71
2022/05/21 09:46:43;;;;;;;0.30;0.30;;;17.90;99.90;;;;;;5076554;28;20053;-72
2022/05/21 09:49:16;;;;;;;0.68;0.68;;;18.00;99.90;;;;;;5076607;28;20055;-72
2022/05/21 09:51:51;;;;;;;0.30;0.30;;;18.10;99.90;;;;;;5076446;28;20040;-72
2022/05/21 09:54:23;;;;;;;0.30;0.30;;;18.00;99.90;;;;;;5075102;28;20079;-72
2022/05/21 09:56:52;;;;;;;0.55;0.30;;;17.90;99.90;;;;;;5076642;28;20040;-73
2022/05/21 09:59:25;;;;;;;1.45;0.85;;;17.90;99.90;;;;;;5076067;28;20059;-72
2022/05/21 10:01:54;;;;;;;0.30;0.30;;;17.60;99.90;;;;;;5076199;28;20051;-73
2022/05/21 10:04:37;;;;;;;0.30;0.30;;;17.50;99.90;;;;;;5076203;28;20048;-73
2022/05/21 10:12:58;;;;;;;0.30;0.30;;;18.00;99.90;;;;;;5075883;28;20052;-73
2022/05/21 10:15:29;;;;;;;0.60;0.60;;;18.00;99.90;;;;;;5075932;28;20044;-73
2022/05/21 10:18:04;;;;;;;0.30;0.30;;;18.00;99.90;;;;;;5076285;28;20408;-73
2022/05/21 10:20:42;;;;;;;0.30;0.30;;;18.30;99.90;;;;;;5075999;28;20431;-74
2022/05/21 10:23:33;;;;;;;0.30;0.30;;;18.30;99.90;;;;;;5075106;28;20055;-73
2022/05/21 10:26:29;;;;;;;0.30;0.30;;;18.60;99.90;;;;;;5075708;28;20083;-72
2022/05/21 10:29:28;;;;;;;0.47;0.47;;;18.50;99.90;;;;;;5075849;28;20052;-73
2022/05/21 10:32:38;;;;;;;0.50;0.50;;;18.30;99.90;;;;;;5075522;28;20064;-73
2022/05/21 10:35:16;;;;;;;0.30;0.30;;;18.10;99.90;;;;;;5033001;28;20210;-72
2022/05/21 10:38:26;;;;;;;0.30;0.30;;;18.00;99.90;;;;;;5069883;28;20060;-73
2022/05/21 10:41:06;;;;;;;1.35;1.00;;;18.00;99.90;;;;;;5075263;28;20047;-73
2022/05/21 10:43:43;;;;;;;0.30;0.30;;;18.10;99.90;;;;;;5075436;28;20050;-72
2022/05/21 10:46:29;;;;;;;0.30;0.30;;;18.30;99.90;;;;;;5075289;28;20451;-72
2022/05/21 10:49:18;;;;;;;0.30;0.30;;;18.30;99.90;;;;;;5075646;28;20404;-72
2022/05/21 10:51:43;;;;;;;0.38;0.38;;;18.30;99.90;;;;;;5075422;28;20044;-73
2022/05/21 10:54:26;;;;;;;0.30;0.30;;;18.30;99.90;;;;;;5075088;28;20502;-73
2022/05/21 10:57:11;;;;;;;0.30;0.30;;;18.40;99.90;;;;;;5075282;28;20044;-73
2022/05/21 10:59:48;;;;;;;0.30;0.30;;;18.50;99.90;;;;;;5074986;28;20097;-73
2022/05/21 11:02:51;;;;;;;0.30;0.30;;;18.30;99.90;;;;;;5075169;28;20047;-73
2022/05/21 11:05:40;;;;;;;0.40;0.40;;;18.20;99.90;;;;;;5074788;28;20392;-73
2022/05/21 11:08:31;;;;;;;0.30;0.30;;;18.30;99.90;;;;;;5074941;28;20435;-73
2022/05/21 11:11:03;;;;;;;0.30;0.30;;;18.40;99.90;;;;;;5075132;28;20392;-73
2022/05/21 11:13:45;;;;;;;0.30;0.30;;;18.30;99.90;;;;;;5074607;28;20049;-73
2022/05/21 11:16:18;;;;;;;0.30;0.30;;;18.40;99.90;;;;;;5075075;28;20166;-73
2022/05/21 11:19:43;;;;;;;0.30;0.30;;;18.60;99.90;;;;;;5075001;28;20369;-73
2022/05/21 11:22:17;;;;;;;0.30;0.30;;;18.60;99.90;;;;;;5018349;28;20200;-73
2022/05/21 11:24:56;;;;;;;0.30;0.30;;;18.70;99.90;;;;;;5032502;28;20050;-73
2022/05/21 11:27:36;;;;;;;3.50;1.13;;;19.00;99.90;;;;;;5064430;28;20052;-73
2022/05/21 11:30:07;;;;;;;0.30;0.30;;;19.30;99.90;;;;;;5074574;28;20084;-72
2022/05/21 11:38:31;;;;;;;0.30;0.30;;;19.80;99.90;;;;;;5074333;28;20048;-74
2022/05/21 11:46:55;;;;;;;0.20;0.20;;;19.60;99.90;;;;;;5032791;28;20049;-74
2022/05/21 11:49:26;;;;;;;0.20;0.20;;;19.80;99.90;;;;;;5074532;28;20094;-74
2022/05/21 11:51:52;;;;;;;0.40;0.40;;;19.70;99.90;;;;;;5073959;28;20044;-74
2022/05/21 11:54:50;;;;;;;0.30;0.30;;;19.80;99.90;;;;;;5074311;28;20119;-75
2022/05/21 11:57:34;;;;;;;0.30;0.30;;;19.70;99.90;;;;;;5073955;28;20389;-74
2022/05/21 12:00:06;;;;;;;0.30;0.30;;;19.50;99.90;;;;;;5072849;28;20388;-74
2022/05/21 12:02:54;;;;;;;0.30;0.30;;;19.20;99.90;;;;;;5074333;28;20048;-74
2022/05/21 12:05:38;;;;;;;0.30;0.30;;;19.30;99.90;;;;;;5073628;28;20088;-74
2022/05/21 12:08:29;;;;;;;0.30;0.30;;;19.30;99.90;;;;;;5073507;28;20051;-73
2022/05/21 12:11:16;;;;;;;0.30;0.30;;;19.30;99.90;;;;;;5074503;28;20594;-74
2022/05/21 12:14:00;;;;;;;0.20;0.20;;;19.00;99.90;;;;;;5072910;28;20051;-73
2022/05/21 12:16:26;;;;;;;0.30;0.30;;;19.00;99.90;;;;;;5073704;28;20290;-73
2022/05/21 12:18:57;;;;;;;0.30;0.30;;;19.20;99.90;;;;;;5074090;28;20048;-74
2022/05/21 12:21:36;;;;;;;0.85;0.82;;;19.50;99.90;;;;;;5073617;28;20094;-74
2022/05/21 12:24:26;;;;;;;1.10;0.82;;;19.80;99.90;;;;;;5073981;28;20108;-74
2022/05/21 12:27:11;;;;;;;0.30;0.30;;;19.90;99.90;;;;;;5073521;28;20048;-74
2022/05/21 12:29:45;;;;;;;0.30;0.30;;;19.90;99.90;;;;;;5074032;28;20059;-74
2022/05/21 12:32:23;;;;;;;1.10;0.50;;;20.10;99.90;;;;;;5073591;28;20083;-74
2022/05/21 12:35:01;;;;;;;0.28;0.28;;;20.10;99.90;;;;;;5073550;28;20073;-72
2022/05/21 12:37:38;;;;;;;0.20;0.20;;;19.90;99.90;;;;;;5073280;28;20504;-73
2022/05/21 12:40:20;;;;;;;0.43;0.40;;;19.50;99.90;;;;;;5073493;28;20053;-73
2022/05/21 12:43:01;;;;;;;0.20;0.20;;;19.30;99.90;;;;;;5073521;28;20048;-72
2022/05/21 12:45:44;;;;;;;4.57;1.38;;;19.10;99.90;;;;;;5074856;28;20052;-73
2022/05/21 12:48:35;;;;;;;0.30;0.30;;;18.90;99.90;;;;;;5077609;28;20044;-73
2022/05/21 12:51:04;;;;;;;0.88;0.77;;;18.60;99.90;;;;;;5077746;28;20133;-73
2022/05/21 12:53:41;;;;;;;0.30;0.30;;;18.50;99.90;;;;;;5077306;28;20051;-73
2022/05/21 12:56:23;;;;;;;0.30;0.30;;;18.30;99.90;;;;;;5077428;28;20044;-73
2022/05/21 12:59:06;;;;;;;0.30;0.30;;;18.20;99.90;;;;;;5077347;28;20048;-72
2022/05/21 13:01:34;;;;;;;0.30;0.30;;;18.10;99.90;;;;;;5077139;28;20051;-73
2022/05/21 13:04:00;;;;;;;1.10;0.75;;;17.90;99.90;;;;;;5077217;28;20087;-72
2022/05/21 13:06:31;;;;;;;0.30;0.30;;;18.10;99.90;;;;;;5077037;28;20079;-73
2022/05/21 13:09:00;;;;;;;0.30;0.30;;;18.40;99.90;;;;;;5077597;28;20040;-73
2022/05/21 13:11:36;;;;;;;0.30;0.30;;;18.50;99.90;;;;;;5077037;28;20044;-73
2022/05/21 13:14:08;;;;;;;0.30;0.30;;;18.70;99.90;;;;;;5077025;28;20060;-73
2022/05/21 13:16:34;;;;;;;0.40;0.40;;;19.00;99.90;;;;;;5077131;28;20127;-73
2022/05/21 13:19:35;;;;;;;0.30;0.30;;;19.30;99.90;;;;;;5076847;28;20123;-73
2022/05/21 13:22:30;;;;;;;0.45;0.45;;;19.40;99.90;;;;;;5077094;28;20037;-73
2022/05/21 13:25:02;;;;;;;0.30;0.30;;;19.30;99.90;;;;;;5076971;28;20084;-73
2022/05/21 13:27:27;;;;;;;0.20;0.20;;;19.50;99.90;;;;;;5076695;28;20068;-73
2022/05/21 13:29:54;;;;;;;0.30;0.30;;;19.60;99.90;;;;;;5075583;28;20127;-73
2022/05/21 13:32:31;;;;;;;0.30;0.30;;;19.80;99.90;;;;;;5076587;28;20082;-73
2022/05/21 13:35:17;;;;;;;0.30;0.30;;;19.80;99.90;;;;;;5076621;28;20036;-74
2022/05/21 13:37:46;;;;;;;0.30;0.30;;;19.50;99.90;;;;;;5076787;28;20049;-74
2022/05/21 13:40:30;;;;;;;0.30;0.30;;;19.30;99.90;;;;;;5076382;28;20055;-73
2022/05/21 13:43:05;;;;;;;0.20;0.20;;;19.20;99.90;;;;;;5076493;28;20048;-73
2022/05/21 13:45:37;;;;;;;0.20;0.20;;;19.30;99.90;;;;;;5076388;28;20114;-73
2022/05/21 13:48:06;;;;;;;0.22;0.22;;;19.30;99.90;;;;;;5076313;28;20048;-73
2022/05/21 13:50:32;;;;;;;0.30;0.30;;;19.20;99.90;;;;;;5076520;28;20102;-74
2022/05/21 13:53:00;;;;;;;0.40;0.40;;;19.10;99.90;;;;;;5076258;28;20056;-74